Time;durP1;ratioP1;P1;durP2;ratioP2;P2;SDS_P1;SDS_P2;PMS_P1;PMS_P2;Temp;Humidity;BMP_temperature;BMP_pressure;BME280_temperature;BME280_humidity;BME280_pressure;Samples;Min_cycle;Max_cycle;Signal;HPM_P1;HPM_P2
2022/10/05 00:01:25;;;;;;;;;;;;;;;13.52;66.91;101674.88;5063845;28;19927;-56
2022/10/05 00:03:51;;;;;;;;;;;;;;;13.50;66.71;101681.22;5054533;28;19963;-56
2022/10/05 00:06:17;;;;;;;;;;;;;;;13.47;66.90;101678.72;5069618;28;20015;-56
2022/10/05 00:08:42;;;;;;;;;;;;;;;13.46;66.82;101677.03;5055457;28;19938;-53
2022/10/05 00:11:11;;;;;;;;;;;;;;;13.43;66.91;101687.75;5058199;28;19920;-56
2022/10/05 00:13:38;;;;;;;;;;;;;;;13.41;66.94;101687.84;5060952;28;19920;-54
2022/10/05 00:16:04;;;;;;;;;;;;;;;13.41;66.97;101682.56;5066262;28;19987;-54
2022/10/05 00:18:29;;;;;;;;;;;;;;;13.39;66.82;101679.97;5065780;28;19928;-54
2022/10/05 00:20:54;;;;;;;;;;;;;;;13.39;66.90;101687.03;5062992;28;20058;-53
2022/10/05 00:23:22;;;;;;;;;;;;;;;13.39;67.06;101692.34;5047566;28;20533;-55
2022/10/05 00:25:47;;;;;;;;;;;;;;;13.39;67.05;101674.66;5062991;28;19921;-56
2022/10/05 00:28:30;;;;;;;;;;;;;;;13.38;67.09;101673.00;5058173;28;19954;-55
2022/10/05 00:30:56;;;;;;;;;;;;;;;13.37;67.28;101660.72;5056595;28;20663;-54
2022/10/05 00:33:21;;;;;;;;;;;;;;;13.40;67.06;101683.50;5058817;28;20300;-54
2022/10/05 00:35:47;;;;;;;;;;;;;;;13.40;67.10;101686.97;5056756;28;19989;-55
2022/10/05 00:38:12;;;;;;;;;;;;;;;13.41;67.03;101688.69;5061361;28;19920;-54
2022/10/05 00:40:56;;;;;;;;;;;;;;;13.40;67.05;101676.41;5044256;28;19990;-54
2022/10/05 00:43:32;;;;;;;;;;;;;;;13.39;67.19;101652.69;5057076;28;20018;-57
2022/10/05 00:46:06;;;;;;;;;;;;;;;13.38;67.25;101651.84;5063733;28;20354;-54
2022/10/05 00:48:44;;;;;;;;;;;;;;;13.37;67.37;101652.78;5061604;28;19923;-54
2022/10/05 00:51:10;;;;;;;;;;;;;;;13.37;67.28;101652.78;5067736;28;20566;-54
2022/10/05 00:53:50;;;;;;;;;;;;;;;13.37;67.42;101658.06;5059022;28;20327;-54
2022/10/05 00:56:21;;;;;;;;;;;;;;;13.36;67.49;101663.41;5066747;28;19931;-55
2022/10/05 00:58:55;;;;;;;;;;;;;;;13.36;67.43;101658.13;5058689;28;20015;-54
2022/10/05 01:01:28;;;;;;;;;;;;;;;13.35;67.55;101657.28;5056965;28;20408;-54
2022/10/05 01:04:02;;;;;;;;;;;;;;;13.34;67.58;101650.31;5054279;28;20381;-55
2022/10/05 01:06:38;;;;;;;;;;;;;;;13.34;67.55;101650.31;5056443;28;19924;-54
2022/10/05 01:09:03;;;;;;;;;;;;;;;13.31;67.54;101634.59;5057951;28;19924;-55
2022/10/05 01:11:57;;;;;;;;;;;;;;;13.31;67.58;101639.88;5065134;28;20274;-53
2022/10/05 01:14:49;;;;;;;;;;;;;;;13.27;67.55;101639.22;5000067;28;19929;-54
2022/10/05 01:17:27;;;;;;;;;;;;;;;13.25;67.46;101641.09;5056690;28;19944;-53
2022/10/05 01:20:07;;;;;;;;;;;;;;;13.25;67.54;101646.38;5064330;28;19967;-55
2022/10/05 01:22:47;;;;;;;;;;;;;;;13.22;67.43;101635.13;5060653;28;20383;-54
2022/10/05 01:25:13;;;;;;;;;;;;;;;13.20;67.28;101647.56;5057379;28;20305;-53
2022/10/05 01:28:07;;;;;;;;;;;;;;;13.18;67.12;101644.16;5060196;28;19931;-54
2022/10/05 01:30:36;;;;;;;;;;;;;;;13.14;67.11;101650.53;5041927;28;19921;-56
2022/10/05 01:33:08;;;;;;;;;;;;;;;13.09;67.03;101653.41;5057440;28;19960;-55
2022/10/05 01:35:36;;;;;;;;;;;;;;;13.04;67.03;101640.47;5057736;28;19931;-54
2022/10/05 01:38:23;;;;;;;;;;;;;;;13.01;66.92;101637.97;5064103;28;19986;-54
2022/10/05 01:41:11;;;;;;;;;;;;;;;12.99;67.20;101636.38;5037990;28;20377;-54
2022/10/05 01:43:45;;;;;;;;;;;;;;;12.97;67.23;101625.88;5026144;28;19927;-55
2022/10/05 01:46:29;;;;;;;;;;;;;;;12.96;67.42;101621.50;5064734;28;20047;-55
2022/10/05 01:49:13;;;;;;;;;;;;;;;12.96;67.34;101624.16;5061682;28;19920;-54
2022/10/05 01:51:44;;;;;;;;;;;;;;;12.93;67.58;101624.34;5066167;28;20363;-53
2022/10/05 01:54:30;;;;;;;;;;;;;;;12.93;67.59;101627.00;5061935;28;20309;-57
2022/10/05 01:57:07;;;;;;;;;;;;;;;12.92;67.74;101626.13;5058754;28;20378;-57
2022/10/05 01:59:38;;;;;;;;;;;;;;;12.92;67.60;101628.75;5064454;28;19962;-55
2022/10/05 02:02:09;;;;;;;;;;;;;;;12.91;67.54;101628.84;5059197;28;19924;-60
2022/10/05 02:04:35;;;;;;;;;;;;;;;12.88;67.57;101626.38;5064980;28;19938;-54
2022/10/05 02:07:02;;;;;;;;;;;;;;;12.87;67.47;101625.50;5052629;28;20320;-54
2022/10/05 02:09:30;;;;;;;;;;;;;;;12.86;67.64;101622.94;5047138;28;19935;-55
2022/10/05 02:12:05;;;;;;;;;;;;;;;12.84;67.51;101624.81;5060112;28;19924;-54
2022/10/05 02:14:34;;;;;;;;;;;;;;;12.81;67.36;101620.56;5060899;28;19924;-53
2022/10/05 02:17:04;;;;;;;;;;;;;;;12.80;67.31;101629.41;5058559;28;19924;-55
2022/10/05 02:19:29;;;;;;;;;;;;;;;12.76;67.48;101626.09;5036667;28;19921;-55
2022/10/05 02:22:06;;;;;;;;;;;;;;;12.74;67.56;101622.69;5042735;28;19927;-52
2022/10/05 02:24:34;;;;;;;;;;;;;;;12.72;67.67;101616.63;5052324;28;19952;-53
2022/10/05 02:27:01;;;;;;;;;;;;;;;12.70;67.45;101621.13;5060856;28;20401;-57
2022/10/05 02:29:29;;;;;;;;;;;;;;;12.69;67.68;101627.34;5056834;28;19920;-53
2022/10/05 02:32:00;;;;;;;;;;;;;;;12.68;67.63;101625.63;5056627;28;19955;-54
2022/10/05 02:34:27;;;;;;;;;;;;;;;12.66;67.59;101627.50;5040981;28;19932;-55
2022/10/05 02:36:56;;;;;;;;;;;;;;;12.64;67.61;101632.88;5057005;28;19968;-53
2022/10/05 02:39:39;;;;;;;;;;;;;;;12.62;67.58;101625.97;5058307;28;19950;-58
2022/10/05 02:42:14;;;;;;;;;;;;;;;12.59;67.62;101626.13;5064454;28;19921;-55
2022/10/05 02:44:58;;;;;;;;;;;;;;;12.58;67.76;101629.69;5053208;28;20046;-56
2022/10/05 02:47:46;;;;;;;;;;;;;;;12.56;67.66;101623.63;5063323;28;19920;-53
2022/10/05 02:50:17;;;;;;;;;;;;;;;12.57;67.48;101630.63;5057515;28;19928;-53
2022/10/05 02:52:46;;;;;;;;;;;;;;;12.56;67.48;101628.91;5057286;28;19979;-54
2022/10/05 02:55:20;;;;;;;;;;;;;;;12.57;67.57;101638.53;5054250;28;20007;-56
2022/10/05 02:57:56;;;;;;;;;;;;;;;12.59;67.65;101641.97;5064654;28;19923;-54
2022/10/05 03:00:23;;;;;;;;;;;;;;;12.60;67.56;101638.38;5064643;28;19947;-54
2022/10/05 03:03:03;;;;;;;;;;;;;;;12.59;67.50;101634.88;5065312;28;19924;-54
2022/10/05 03:05:34;;;;;;;;;;;;;;;12.60;67.64;101633.09;5058110;28;19927;-52
2022/10/05 03:08:08;;;;;;;;;;;;;;;12.61;67.61;101629.53;5056872;28;20263;-52
2022/10/05 03:10:51;;;;;;;;;;;;;;;12.60;67.58;101628.66;5060176;28;19924;-52
2022/10/05 03:13:35;;;;;;;;;;;;;;;12.60;67.69;101622.53;5055422;28;19979;-53
2022/10/05 03:16:16;;;;;;;;;;;;;;;12.59;67.69;101620.84;5063657;28;19924;-53
2022/10/05 03:18:57;;;;;;;;;;;;;;;12.59;67.89;101610.28;5055005;28;19924;-51
2022/10/05 03:21:22;;;;;;;;;;;;;;;12.59;67.98;101608.47;5055031;28;19919;-54
2022/10/05 03:23:47;;;;;;;;;;;;;;;12.60;67.98;101607.53;5057837;28;19927;-55
2022/10/05 03:26:21;;;;;;;;;;;;;;;12.61;67.96;101597.84;5062236;28;19917;-53
2022/10/05 03:28:57;;;;;;;;;;;;;;;12.63;67.87;101590.69;5060387;28;19924;-54
2022/10/05 03:31:38;;;;;;;;;;;;;;;12.63;67.70;101581.00;5061087;28;20473;-53
2022/10/05 03:34:08;;;;;;;;;;;;;;;12.64;67.79;101581.81;5062100;28;19930;-53
2022/10/05 03:36:33;;;;;;;;;;;;;;;12.63;67.68;101578.34;5059350;28;19921;-52
2022/10/05 03:39:09;;;;;;;;;;;;;;;12.63;67.67;101570.44;5059806;28;19924;-56
2022/10/05 03:41:50;;;;;;;;;;;;;;;12.64;67.58;101568.63;5058640;28;19962;-56
2022/10/05 03:44:16;;;;;;;;;;;;;;;12.62;67.51;101568.72;5060086;28;19924;-54
2022/10/05 03:46:47;;;;;;;;;;;;;;;12.62;67.76;101574.00;5065378;28;20404;-54
2022/10/05 03:49:12;;;;;;;;;;;;;;;12.61;67.78;101566.16;5064874;28;19925;-54
2022/10/05 03:51:40;;;;;;;;;;;;;;;12.60;67.77;101569.75;5059038;28;19920;-55
2022/10/05 03:54:15;;;;;;;;;;;;;;;12.60;67.72;101569.75;5055551;28;20406;-55
2022/10/05 03:56:59;;;;;;;;;;;;;;;12.60;67.66;101569.75;5057605;28;20322;-55
2022/10/05 03:59:31;;;;;;;;;;;;;;;12.58;67.70;101567.16;5057350;28;19999;-55
2022/10/05 04:01:58;;;;;;;;;;;;;;;12.57;67.59;101561.97;5057080;28;20011;-55
2022/10/05 04:04:27;;;;;;;;;;;;;;;12.56;67.77;101568.19;5058824;28;19920;-56
2022/10/05 04:06:54;;;;;;;;;;;;;;;12.54;67.56;101570.06;5065631;28;19930;-55
2022/10/05 04:09:26;;;;;;;;;;;;;;;12.53;67.62;101571.00;5066642;28;20011;-55
2022/10/05 04:11:57;;;;;;;;;;;;;;;12.51;67.45;101571.09;5059051;28;19928;-55
2022/10/05 04:14:25;;;;;;;;;;;;;;;12.48;67.42;101565.97;5061301;28;19924;-56
2022/10/05 04:16:56;;;;;;;;;;;;;;;12.47;67.55;101559.84;5060487;28;19920;-54
2022/10/05 04:19:25;;;;;;;;;;;;;;;12.46;67.54;101558.13;5059261;28;20365;-55
2022/10/05 04:21:57;;;;;;;;;;;;;;;12.45;67.69;101560.84;5055626;28;20530;-54
2022/10/05 04:24:39;;;;;;;;;;;;;;;12.45;67.58;101558.19;5059011;28;20304;-55
2022/10/05 04:27:14;;;;;;;;;;;;;;;12.47;67.63;101564.25;5058270;28;19924;-55
2022/10/05 04:29:43;;;;;;;;;;;;;;;12.45;67.64;101553.78;5059616;28;20337;-54
2022/10/05 04:32:32;;;;;;;;;;;;;;;12.44;67.83;101560.00;5052741;28;19924;-57
2022/10/05 04:34:57;;;;;;;;;;;;;;;12.44;67.65;101567.91;5048693;28;20321;-55
2022/10/05 04:37:29;;;;;;;;;;;;;;;12.45;67.46;101572.25;5066167;28;20062;-53
2022/10/05 04:40:17;;;;;;;;;;;;;;;12.43;67.74;101563.56;5063670;28;19936;-54
2022/10/05 04:42:49;;;;;;;;;;;;;;;12.45;67.49;101561.69;5058226;28;20010;-55
2022/10/05 04:45:14;;;;;;;;;;;;;;;12.46;67.68;101563.41;5057848;28;20033;-54
2022/10/05 04:47:42;;;;;;;;;;;;;;;12.45;67.63;101568.75;5061841;28;20497;-55
2022/10/05 04:50:22;;;;;;;;;;;;;;;12.45;67.69;101576.66;5055748;28;19967;-54
2022/10/05 04:52:47;;;;;;;;;;;;;;;12.46;67.62;101568.69;5059071;28;19924;-54
2022/10/05 04:55:16;;;;;;;;;;;;;;;12.48;67.89;101576.50;5061241;28;19927;-54
2022/10/05 04:58:04;;;;;;;;;;;;;;;12.49;68.08;101580.88;5064179;28;19916;-54
2022/10/05 05:00:45;;;;;;;;;;;;;;;12.51;67.85;101581.63;5017928;28;19924;-57
2022/10/05 05:03:49;;;;;;;;;;;;;;;12.52;67.62;101580.72;5070234;28;19924;-56
2022/10/05 05:06:20;;;;;;;;;;;;;;;12.52;67.79;101575.44;4988139;28;19925;-60
2022/10/05 05:08:45;;;;;;;;;;;;;;;12.53;67.70;101582.41;4990911;28;19917;-56
2022/10/05 05:11:24;;;;;;;;;;;;;;;12.53;67.78;101585.06;5031971;28;20262;-57
2022/10/05 05:13:59;;;;;;;;;;;;;;;12.53;67.73;101585.06;5073178;28;19948;-58
2022/10/05 05:16:38;;;;;;;;;;;;;;;12.53;67.90;101578.91;5072031;28;19924;-57
2022/10/05 05:19:17;;;;;;;;;;;;;;;12.56;67.73;101581.41;5070523;28;20013;-54
2022/10/05 05:22:01;;;;;;;;;;;;;;;12.56;67.65;101586.66;5069444;28;19973;-56
2022/10/05 05:24:44;;;;;;;;;;;;;;;12.53;67.48;101577.13;5066617;28;20407;-55
2022/10/05 05:27:10;;;;;;;;;;;;;;;12.51;67.53;101576.38;5065743;28;19924;-54
2022/10/05 05:29:35;;;;;;;;;;;;;;;12.49;67.47;101571.13;5067286;28;19916;-56
2022/10/05 05:32:00;;;;;;;;;;;;;;;12.47;67.58;101570.41;5102614;23;20387;-52
2022/10/05 05:34:49;;;;;;;;;;;;;;;12.46;67.56;101573.97;5068965;28;19920;-51
2022/10/05 05:37:17;;;;;;;;;;;;;;;12.44;67.56;101570.56;5037750;28;20033;-52
2022/10/05 05:39:48;;;;;;;;;;;;;;;12.43;67.43;101562.69;5075019;28;19994;-53
2022/10/05 05:42:22;;;;;;;;;;;;;;;12.41;67.59;101569.84;5067647;28;20288;-52
2022/10/05 05:44:52;;;;;;;;;;;;;;;12.39;67.62;101561.19;5070742;28;20327;-51
2022/10/05 05:47:43;;;;;;;;;;;;;;;12.37;67.62;101565.69;5070553;28;19917;-52
2022/10/05 05:50:18;;;;;;;;;;;;;;;12.35;67.64;101560.47;5062079;28;19999;-52
2022/10/05 05:52:57;;;;;;;;;;;;;;;12.37;67.48;101560.41;5064795;28;19969;-52
2022/10/05 05:55:29;;;;;;;;;;;;;;;12.36;67.71;101564.81;5066252;28;20334;-52
2022/10/05 05:57:54;;;;;;;;;;;;;;;12.36;67.80;101564.81;5073334;28;20015;-54
2022/10/05 06:00:23;;;;;;;;;;;;;;;12.36;67.84;101559.53;5065414;28;20011;-53
2022/10/05 06:02:51;;;;;;;;;;;;;;;12.37;67.87;101563.03;5071163;28;19923;-52
2022/10/05 06:05:27;;;;;;;;;;;;;;;12.38;67.70;101565.59;5073485;28;20338;-55
2022/10/05 06:07:54;;;;;;;;;;;;;;;12.38;67.93;101568.22;5072274;28;19924;-54
2022/10/05 06:10:31;;;;;;;;;;;;;;;12.41;67.46;101575.13;5067515;28;19940;-55
2022/10/05 06:12:59;;;;;;;;;;;;;;;12.40;67.58;101571.63;5072519;28;19924;-53
2022/10/05 06:15:24;;;;;;;;;;;;;;;12.40;67.78;101563.72;5073685;28;19928;-54
2022/10/05 06:17:53;;;;;;;;;;;;;;;12.40;67.85;101563.72;5067124;28;19920;-53
2022/10/05 06:20:24;;;;;;;;;;;;;;;12.42;67.73;101568.91;5072714;28;20340;-53
2022/10/05 06:22:51;;;;;;;;;;;;;;;12.44;67.73;101560.00;5068522;28;20419;-54
2022/10/05 06:25:25;;;;;;;;;;;;;;;12.47;67.79;101554.56;5065034;28;20381;-54
2022/10/05 06:27:58;;;;;;;;;;;;;;;12.50;67.89;101572.00;5067456;28;20131;-55
2022/10/05 06:30:25;;;;;;;;;;;;;;;12.53;67.72;101568.34;5069983;28;19916;-54
2022/10/05 06:32:57;;;;;;;;;;;;;;;12.57;67.72;101569.91;5071890;28;20332;-55
2022/10/05 06:35:31;;;;;;;;;;;;;;;12.60;67.63;101569.75;5067174;28;19916;-55
2022/10/05 06:38:15;;;;;;;;;;;;;;;12.64;67.71;101577.41;5071840;28;20013;-54
2022/10/05 06:40:43;;;;;;;;;;;;;;;12.68;67.56;101571.97;5072169;28;20004;-51
2022/10/05 06:43:16;;;;;;;;;;;;;;;12.73;67.64;101573.44;5072187;28;19974;-52
2022/10/05 06:45:48;;;;;;;;;;;;;;;12.78;67.58;101583.75;5070474;28;19924;-52
2022/10/05 06:48:18;;;;;;;;;;;;;;;12.81;67.34;101584.41;5072703;28;19912;-52
2022/10/05 06:50:51;;;;;;;;;;;;;;;12.84;67.24;101575.50;5069632;28;19923;-53
2022/10/05 06:53:35;;;;;;;;;;;;;;;12.85;67.10;101577.22;5066786;28;19924;-51
2022/10/05 06:56:10;;;;;;;;;;;;;;;12.89;67.25;101554.13;5066473;28;19927;-51
2022/10/05 06:58:43;;;;;;;;;;;;;;;12.93;67.10;101553.03;5069196;28;20652;-51
2022/10/05 07:01:21;;;;;;;;;;;;;;;12.96;67.22;101555.47;5076250;28;19987;-53
2022/10/05 07:04:06;;;;;;;;;;;;;;;12.99;67.17;101555.31;5067502;28;19960;-55
2022/10/05 07:06:54;;;;;;;;;;;;;;;13.03;67.04;101572.69;5041004;28;19965;-55
2022/10/05 07:09:20;;;;;;;;;;;;;;;13.06;67.23;101566.38;5066038;28;19931;-55
2022/10/05 07:11:54;;;;;;;;;;;;;;;13.08;67.16;101559.22;5071790;28;19916;-55
2022/10/05 07:14:22;;;;;;;;;;;;;;;13.14;67.12;101573.88;5071213;28;20288;-55
2022/10/05 07:16:56;;;;;;;;;;;;;;;13.16;67.10;101578.16;5069666;28;20019;-54
2022/10/05 07:19:31;;;;;;;;;;;;;;;13.19;66.98;101583.25;5071013;28;19978;-54
2022/10/05 07:21:56;;;;;;;;;;;;;;;13.22;66.96;101587.56;5072667;28;20328;-55
2022/10/05 07:24:22;;;;;;;;;;;;;;;13.24;66.93;101590.94;5074456;28;19913;-56
2022/10/05 07:26:57;;;;;;;;;;;;;;;13.25;66.88;101592.63;5070053;28;20356;-53
2022/10/05 07:29:27;;;;;;;;;;;;;;;13.26;66.81;101583.78;5074790;28;20391;-56
2022/10/05 07:31:52;;;;;;;;;;;;;;;13.26;66.90;101578.50;5069996;28;19916;-54
2022/10/05 07:34:29;;;;;;;;;;;;;;;13.29;66.93;101583.63;5072383;28;19989;-55
2022/10/05 07:39:47;;;;;;;;;;;;;;;13.35;67.06;101572.72;5075946;28;19924;-54
2022/10/05 07:42:17;;;;;;;;;;;;;;;13.40;66.98;101578.59;5070842;28;19924;-51
2022/10/05 07:44:47;;;;;;;;;;;;;;;13.45;66.78;101572.22;5071677;28;19952;-51
2022/10/05 07:47:39;;;;;;;;;;;;;;;13.48;66.96;101579.97;5069606;28;20372;-52
2022/10/05 07:50:25;;;;;;;;;;;;;;;13.51;66.98;101577.16;5067600;28;19931;-51
2022/10/05 07:52:55;;;;;;;;;;;;;;;13.53;66.77;101577.94;5072072;28;19924;-51
2022/10/05 07:55:30;;;;;;;;;;;;;;;13.54;66.73;101571.66;5075738;28;19919;-51
2022/10/05 07:58:04;;;;;;;;;;;;;;;13.56;66.73;101575.09;5068481;28;19923;-52
2022/10/05 08:00:50;;;;;;;;;;;;;;;13.56;66.66;101565.38;5063519;28;19931;-51
2022/10/05 08:03:23;;;;;;;;;;;;;;;13.55;66.76;101558.38;5068016;28;20004;-51
2022/10/05 08:05:48;;;;;;;;;;;;;;;13.55;66.95;101558.38;5076232;28;19935;-52
2022/10/05 08:08:16;;;;;;;;;;;;;;;13.56;66.97;101559.22;5075854;28;19943;-52
2022/10/05 08:10:48;;;;;;;;;;;;;;;13.59;67.01;101569.63;5071471;28;19955;-52
2022/10/05 08:13:18;;;;;;;;;;;;;;;13.62;67.03;101564.16;5074837;28;19924;-51
2022/10/05 08:15:47;;;;;;;;;;;;;;;13.66;66.88;101564.84;5071683;28;19921;-52
2022/10/05 08:18:23;;;;;;;;;;;;;;;13.68;66.99;101561.19;5069341;28;19921;-54
2022/10/05 08:20:56;;;;;;;;;;;;;;;13.72;66.79;101560.03;5073915;28;20409;-51
2022/10/05 08:23:22;;;;;;;;;;;;;;;13.77;66.82;101559.78;5075352;28;19952;-52
2022/10/05 08:26:08;;;;;;;;;;;;;;;13.83;66.83;101554.13;5078400;28;19913;-52
2022/10/05 08:28:59;;;;;;;;;;;;;;;13.90;66.77;101549.34;5074391;28;19970;-54
2022/10/05 08:31:28;;;;;;;;;;;;;;;13.97;66.53;101542.75;5076561;28;20656;-54
2022/10/05 08:33:57;;;;;;;;;;;;;;;14.00;66.42;101531.97;5069272;28;19974;-54
2022/10/05 08:36:37;;;;;;;;;;;;;;;14.06;66.34;101540.47;5070932;28;19924;-54
2022/10/05 08:39:10;;;;;;;;;;;;;;;14.11;66.22;101538.41;5069477;28;19924;-54
2022/10/05 08:41:35;;;;;;;;;;;;;;;14.15;66.07;101539.91;5069411;28;19916;-52
2022/10/05 08:44:13;;;;;;;;;;;;;;;14.19;65.90;101536.16;5067040;28;20347;-52
2022/10/05 08:46:58;;;;;;;;;;;;;;;14.23;65.96;101527.09;5072094;28;19922;-54
2022/10/05 08:49:26;;;;;;;;;;;;;;;14.27;65.91;101525.97;5064517;28;19929;-52
2022/10/05 08:52:10;;;;;;;;;;;;;;;14.31;66.01;101530.09;5070033;28;20376;-53
2022/10/05 08:54:44;;;;;;;;;;;;;;;14.37;65.82;101535.97;5069076;28;19942;-51
2022/10/05 08:57:28;;;;;;;;;;;;;;;14.41;65.82;101521.63;5067692;28;20373;-52
2022/10/05 09:00:03;;;;;;;;;;;;;;;14.44;65.80;101526.72;5069725;28;19924;-52
2022/10/05 09:02:43;;;;;;;;;;;;;;;14.46;65.77;101528.31;5070360;28;19912;-52
2022/10/05 09:05:08;;;;;;;;;;;;;;;14.49;65.75;101527.28;5068553;28;20447;-55
2022/10/05 09:07:52;;;;;;;;;;;;;;;14.54;65.55;101529.63;5069368;28;19912;-54
2022/10/05 09:10:30;;;;;;;;;;;;;;;14.56;65.63;101525.09;5071709;28;19973;-53
2022/10/05 09:12:58;;;;;;;;;;;;;;;14.59;65.53;101522.25;5081633;28;19918;-55
2022/10/05 09:15:32;;;;;;;;;;;;;;;14.63;65.38;101524.63;5071070;28;19920;-52
2022/10/05 09:18:13;;;;;;;;;;;;;;;14.69;65.46;101527.88;5069309;28;19961;-52
2022/10/05 09:20:38;;;;;;;;;;;;;;;14.71;65.34;101525.97;5071853;28;19921;-52
2022/10/05 09:23:26;;;;;;;;;;;;;;;14.74;65.19;101536.41;5069716;28;20369;-52
2022/10/05 09:25:55;;;;;;;;;;;;;;;14.76;65.19;101550.38;5065929;28;19912;-52
2022/10/05 09:28:29;;;;;;;;;;;;;;;14.77;65.23;101544.13;5083239;28;20498;-52
2022/10/05 09:30:58;;;;;;;;;;;;;;;14.80;65.27;101535.16;5061878;28;20424;-52
2022/10/05 09:33:42;;;;;;;;;;;;;;;14.81;65.25;101543.00;5064825;28;19920;-52
2022/10/05 09:36:07;;;;;;;;;;;;;;;14.82;65.18;101539.41;5070323;28;20372;-52
2022/10/05 09:38:39;;;;;;;;;;;;;;;14.86;65.24;101545.34;5066250;28;19931;-52
2022/10/05 09:41:10;;;;;;;;;;;;;;;14.91;65.15;101544.09;5068874;28;19924;-51
2022/10/05 09:43:54;;;;;;;;;;;;;;;14.95;65.12;101536.84;5072310;28;19920;-52
2022/10/05 09:46:49;;;;;;;;;;;;;;;15.02;65.19;101540.78;5066259;28;19969;-51
2022/10/05 09:49:27;;;;;;;;;;;;;;;15.10;65.08;101542.94;5060999;28;20007;-51
2022/10/05 09:51:52;;;;;;;;;;;;;;;15.19;64.94;101542.38;5068548;28;20029;-52
2022/10/05 09:54:17;;;;;;;;;;;;;;;15.25;64.74;101549.06;5071944;28;20391;-52
2022/10/05 09:56:43;;;;;;;;;;;;;;;15.30;64.76;101546.09;5065120;28;19916;-52
2022/10/05 09:59:11;;;;;;;;;;;;;;;15.34;64.84;101534.38;5070736;28;19924;-51
2022/10/05 10:01:42;;;;;;;;;;;;;;;15.41;64.61;101530.34;5064263;28;19917;-51
2022/10/05 10:04:18;;;;;;;;;;;;;;;15.50;64.60;101534.19;5072002;28;19992;-51
2022/10/05 10:07:03;;;;;;;;;;;;;;;15.57;64.39;101529.31;5070301;28;19920;-51
2022/10/05 10:09:41;;;;;;;;;;;;;;;15.63;64.36;101526.28;5068376;28;19916;-52
2022/10/05 10:12:06;;;;;;;;;;;;;;;15.73;64.33;101527.34;5068622;28;20444;-52
2022/10/05 10:14:51;;;;;;;;;;;;;;;15.80;64.07;101523.34;5070317;28;20012;-53
2022/10/05 10:17:43;;;;;;;;;;;;;;;15.85;63.90;101521.25;5064697;28;19971;-52
2022/10/05 10:20:14;;;;;;;;;;;;;;;15.91;63.88;101522.63;5066291;28;19967;-52
2022/10/05 10:22:50;;;;;;;;;;;;;;;15.94;63.75;101521.59;5063364;28;19978;-52
2022/10/05 10:25:24;;;;;;;;;;;;;;;15.92;63.71;101521.69;5063309;28;19921;-52
2022/10/05 10:27:53;;;;;;;;;;;;;;;15.94;63.79;101522.44;5070568;28;20293;-52
2022/10/05 10:30:28;;;;;;;;;;;;;;;15.97;63.82;101524.88;5071379;28;19952;-53
2022/10/05 10:32:56;;;;;;;;;;;;;;;15.99;63.64;101508.84;5063365;28;19920;-52
2022/10/05 10:35:33;;;;;;;;;;;;;;;16.02;63.70;101513.94;5068363;28;19920;-52
2022/10/05 10:38:07;;;;;;;;;;;;;;;16.05;63.60;101518.19;5068625;28;19935;-51
2022/10/05 10:40:56;;;;;;;;;;;;;;;16.04;63.71;101522.66;5073868;28;19916;-52
2022/10/05 10:43:31;;;;;;;;;;;;;;;16.06;63.51;101528.72;5052117;28;19940;-52
2022/10/05 10:46:11;;;;;;;;;;;;;;;16.09;63.61;101522.31;5065899;28;19920;-52
2022/10/05 10:48:42;;;;;;;;;;;;;;;16.12;63.60;101525.63;5070783;28;19931;-51
2022/10/05 10:51:18;;;;;;;;;;;;;;;16.15;63.64;101525.41;5066803;28;19922;-52
2022/10/05 10:53:52;;;;;;;;;;;;;;;16.18;63.45;101529.69;5068862;28;19917;-52
2022/10/05 10:56:25;;;;;;;;;;;;;;;16.22;63.53;101520.53;5069643;28;19975;-52
2022/10/05 10:59:16;;;;;;;;;;;;;;;16.29;63.40;101515.63;5068218;28;20413;-52
2022/10/05 11:02:09;;;;;;;;;;;;;;;16.33;63.36;101514.47;5060477;28;19975;-52
2022/10/05 11:04:55;;;;;;;;;;;;;;;16.36;63.20;101516.91;5067596;28;20005;-52
2022/10/05 11:07:42;;;;;;;;;;;;;;;16.42;63.10;101516.47;5075227;28;19981;-52
2022/10/05 11:10:11;;;;;;;;;;;;;;;16.47;62.95;101518.81;5072756;28;19917;-52
2022/10/05 11:12:39;;;;;;;;;;;;;;;16.57;63.17;101521.66;5070946;28;20002;-52
2022/10/05 11:15:15;;;;;;;;;;;;;;;16.64;63.01;101511.47;5068283;28;20562;-52
2022/10/05 11:17:40;;;;;;;;;;;;;;;16.71;62.96;101502.91;5067200;28;19958;-52
2022/10/05 11:20:32;;;;;;;;;;;;;;;16.81;62.64;101504.94;5076601;28;19921;-53
2022/10/05 11:23:05;;;;;;;;;;;;;;;16.89;62.62;101492.78;5069980;28;19921;-52
2022/10/05 11:25:46;;;;;;;;;;;;;;;16.96;62.36;101489.69;5065222;28;19974;-52
2022/10/05 11:28:14;;;;;;;;;;;;;;;17.01;62.27;101475.13;5077807;28;19920;-52
2022/10/05 11:30:39;;;;;;;;;;;;;;;17.09;62.37;101471.03;5071791;28;19970;-51
2022/10/05 11:33:11;;;;;;;;;;;;;;;17.14;62.23;101479.53;5067630;28;19935;-52
2022/10/05 11:35:55;;;;;;;;;;;;;;;17.16;62.19;101480.28;5070953;28;19963;-55
2022/10/05 11:38:20;;;;;;;;;;;;;;;17.19;62.10;101485.34;5065880;28;19963;-54
2022/10/05 11:41:04;;;;;;;;;;;;;;;17.22;61.78;101482.47;5069863;28;20365;-52
2022/10/05 11:43:45;;;;;;;;;;;;;;;17.22;61.80;101479.81;5071259;28;19916;-52
2022/10/05 11:46:15;;;;;;;;;;;;;;;17.24;61.67;101475.22;5074774;28;20054;-54
2022/10/05 11:49:01;;;;;;;;;;;;;;;17.27;61.54;101467.03;5069899;28;20431;-55
2022/10/05 11:51:26;;;;;;;;;;;;;;;17.32;61.41;101458.69;5068054;28;19931;-54
2022/10/05 11:53:56;;;;;;;;;;;;;;;17.36;61.54;101453.03;5066768;28;19917;-55
2022/10/05 11:56:30;;;;;;;;;;;;;;;17.40;61.47;101444.81;5072790;28;19936;-54
2022/10/05 11:59:04;;;;;;;;;;;;;;;17.44;61.47;101446.28;5073092;28;19943;-55
2022/10/05 12:01:40;;;;;;;;;;;;;;;17.44;61.17;101452.44;5068788;28;19920;-54
2022/10/05 12:04:27;;;;;;;;;;;;;;;17.44;61.08;101452.44;5070142;28;19925;-56
2022/10/05 12:07:13;;;;;;;;;;;;;;;17.41;60.96;101438.53;5070323;28;19947;-54
2022/10/05 12:10:12;;;;;;;;;;;;;;;17.40;60.87;101436.84;5070812;28;19913;-55
2022/10/05 12:12:35;;;;;;;;;;;;;;;17.36;60.88;101436.22;5074843;28;19924;-56
2022/10/05 12:15:22;;;;;;;;;;;;;;;17.34;61.14;101436.31;5069330;28;19935;-55
2022/10/05 12:17:54;;;;;;;;;;;;;;;17.35;61.16;101435.34;5073175;28;19974;-53
2022/10/05 12:20:22;;;;;;;;;;;;;;;17.36;61.21;101436.22;5067772;28;19924;-52
2022/10/05 12:22:51;;;;;;;;;;;;;;;17.40;60.98;101426.19;5068645;28;19916;-56
2022/10/05 12:25:21;;;;;;;;;;;;;;;17.45;61.06;101424.03;5069087;28;20388;-54
2022/10/05 12:27:50;;;;;;;;;;;;;;;17.47;60.95;101414.97;5071262;28;19917;-56
2022/10/05 12:30:26;;;;;;;;;;;;;;;17.49;60.93;101420.16;5070258;28;19920;-57
2022/10/05 12:33:14;;;;;;;;;;;;;;;17.51;60.94;101418.22;5076385;28;19921;-56
2022/10/05 12:35:51;;;;;;;;;;;;;;;17.51;61.06;101415.56;5074204;28;20372;-56
2022/10/05 12:38:35;;;;;;;;;;;;;;;17.53;60.80;101411.00;5069725;28;19952;-56
2022/10/05 12:41:04;;;;;;;;;;;;;;;17.55;60.89;101409.06;5068638;28;19925;-54
2022/10/05 12:43:39;;;;;;;;;;;;;;;17.57;60.83;101407.13;5073459;28;19927;-58
2022/10/05 12:46:19;;;;;;;;;;;;;;;17.62;60.86;101404.09;5072908;28;20098;-54
2022/10/05 12:48:44;;;;;;;;;;;;;;;17.66;60.94;101406.41;5075508;28;20419;-53
2022/10/05 12:51:18;;;;;;;;;;;;;;;17.72;60.66;101409.56;5069165;28;19967;-54
2022/10/05 12:53:49;;;;;;;;;;;;;;;17.77;60.66;101400.25;5072022;28;20352;-53
2022/10/05 12:56:29;;;;;;;;;;;;;;;17.83;60.47;101390.94;5070720;28;20407;-53
2022/10/05 12:59:03;;;;;;;;;;;;;;;17.90;60.29;101394.84;5064923;28;19924;-53
2022/10/05 13:01:28;;;;;;;;;;;;;;;17.95;60.53;101384.66;5071164;28;19924;-55
2022/10/05 13:04:03;;;;;;;;;;;;;;;18.02;60.30;101384.22;5068576;28;20170;-56
2022/10/05 13:06:38;;;;;;;;;;;;;;;18.05;60.36;101379.47;5072975;28;20498;-54
2022/10/05 13:09:09;;;;;;;;;;;;;;;18.11;60.22;101380.78;5066829;28;19916;-54
2022/10/05 13:11:51;;;;;;;;;;;;;;;18.15;60.37;101374.25;5067876;28;20578;-53
2022/10/05 13:14:31;;;;;;;;;;;;;;;18.19;60.15;101369.53;5069578;28;19916;-55